Aviation Digital Data Service (ADDS)

Output produced by METARs form (2042 UTC 27 April 2017)
found at http://aviationweather.gov/adds/metars/
 
KPBG 272013Z 2720/2818 14012G22KT P6SM FEW250 
     FM280600 15013KT P6SM VCSH BKN050 
     FM280800 17012KT 4SM -SHRA BR OVC040 
     FM281100 18009KT P6SM VCSH BKN050 
     FM281300 23009KT P6SM FEW110